createdAt,value
2022-09-11T00:00:52.974Z,1.10
2022-09-11T00:01:55.538Z,1.10
2022-09-11T00:02:57.448Z,1.43
2022-09-11T00:04:00.008Z,1.07
2022-09-11T00:05:01.753Z,1.23
2022-09-11T00:06:07.354Z,1.20
2022-09-11T00:07:09.360Z,1.40
2022-09-11T00:08:16.710Z,0.93
2022-09-11T00:09:18.511Z,0.83
2022-09-11T00:10:20.210Z,1.17
2022-09-11T00:11:22.655Z,1.30
2022-09-11T00:12:24.457Z,1.20
2022-09-11T00:13:26.160Z,1.10
2022-09-11T00:14:29.606Z,1.23
2022-09-11T00:15:36.800Z,1.10
2022-09-11T00:16:42.990Z,1.20
2022-09-11T00:17:44.689Z,1.20
2022-09-11T00:18:46.814Z,1.30
2022-09-11T00:19:48.550Z,1.47
2022-09-11T00:20:57.033Z,1.07
2022-09-11T00:21:58.780Z,1.20
2022-09-11T00:23:04.937Z,1.40
2022-09-11T00:24:09.797Z,1.40
2022-09-11T00:25:11.535Z,1.23
2022-09-11T00:26:13.271Z,1.30
2022-09-11T00:27:15.558Z,1.43
2022-09-11T00:28:21.756Z,1.40
2022-09-11T00:29:23.655Z,1.10
2022-09-11T00:30:25.404Z,1.33
2022-09-11T00:31:30.590Z,1.20
2022-09-11T00:32:33.199Z,1.33
2022-09-11T00:33:36.914Z,1.30
2022-09-11T00:34:39.144Z,1.27
2022-09-11T00:35:41.947Z,1.20
2022-09-11T00:36:44.145Z,1.37
2022-09-11T00:37:45.865Z,1.20
2022-09-11T00:38:49.331Z,1.40
2022-09-11T00:39:54.436Z,1.20
2022-09-11T00:40:59.971Z,1.80
2022-09-11T00:42:02.299Z,1.20
2022-09-11T00:43:09.897Z,1.40
2022-09-11T00:44:16.780Z,1.60
2022-09-11T00:45:28.350Z,1.50
2022-09-11T00:46:55.888Z,1.30
2022-09-11T00:48:00.042Z,1.30
2022-09-11T00:49:14.422Z,1.70
2022-09-11T00:50:22.205Z,1.33
2022-09-11T00:51:29.415Z,1.50
2022-09-11T00:52:38.748Z,1.43
2022-09-11T00:53:40.680Z,1.67
2022-09-11T00:55:08.813Z,1.57
2022-09-11T00:56:11.507Z,1.30
2022-09-11T00:57:13.687Z,1.50
2022-09-11T00:58:21.973Z,1.60
2022-09-11T00:59:26.912Z,1.47
2022-09-11T01:00:29.084Z,1.37
2022-09-11T01:01:31.066Z,1.27
2022-09-11T01:02:37.041Z,1.30
2022-09-11T01:03:38.839Z,1.53
2022-09-11T01:04:40.612Z,1.50
2022-09-11T01:05:43.649Z,1.37
2022-09-11T01:06:46.648Z,1.37
2022-09-11T01:07:54.168Z,1.20
2022-09-11T01:08:55.884Z,1.40
2022-09-11T01:09:59.170Z,1.37
2022-09-11T01:11:39.980Z,1.40
2022-09-11T01:13:12.451Z,1.20
2022-09-11T01:14:32.422Z,1.43
2022-09-11T01:15:57.193Z,1.53
2022-09-11T01:18:02.162Z,1.50
2022-09-11T01:19:34.270Z,1.53
2022-09-11T01:21:05.968Z,1.43
2022-09-11T01:22:51.640Z,1.50
2022-09-11T01:24:45.599Z,1.33
2022-09-11T01:26:18.846Z,1.50
2022-09-11T01:27:52.020Z,1.60
2022-09-11T01:29:09.537Z,1.53
2022-09-11T01:30:13.159Z,1.80
2022-09-11T01:31:22.596Z,1.53
2022-09-11T01:32:41.334Z,1.53
2022-09-11T01:33:55.044Z,1.40
2022-09-11T01:35:33.858Z,1.60
2022-09-11T01:36:53.657Z,1.43
2022-09-11T01:38:03.890Z,1.73
2022-09-11T01:39:05.786Z,1.60
2022-09-11T01:40:24.114Z,1.77
2022-09-11T01:41:44.879Z,1.77
2022-09-11T01:42:54.393Z,1.90
2022-09-11T01:44:18.557Z,1.70
2022-09-11T01:45:24.165Z,1.37
2022-09-11T01:46:28.611Z,1.40
2022-09-11T01:47:34.895Z,1.57
2022-09-11T01:48:48.598Z,1.87
2022-09-11T01:50:07.138Z,1.63
2022-09-11T01:51:16.298Z,1.67
2022-09-11T01:52:32.056Z,1.70
2022-09-11T01:53:45.881Z,1.40
2022-09-11T01:54:59.731Z,1.73
2022-09-11T01:56:20.760Z,1.70
2022-09-11T01:57:36.985Z,1.67
2022-09-11T01:58:42.003Z,1.90
2022-09-11T01:59:53.043Z,1.60
2022-09-11T02:01:04.534Z,1.80
2022-09-11T02:02:11.871Z,1.90
2022-09-11T02:03:39.486Z,1.50
2022-09-11T02:05:01.217Z,1.60
2022-09-11T02:06:14.447Z,1.97
2022-09-11T02:07:24.919Z,1.63
2022-09-11T02:08:32.923Z,1.73
2022-09-11T02:09:46.836Z,1.77
2022-09-11T02:11:07.097Z,2.20
2022-09-11T02:12:15.983Z,1.60
2022-09-11T02:14:21.143Z,1.70
2022-09-11T02:15:33.279Z,1.70
2022-09-11T02:16:53.410Z,1.93
2022-09-11T02:18:06.181Z,2.10
2022-09-11T02:19:16.966Z,1.70
2022-09-11T02:20:20.899Z,2.00
2022-09-11T02:21:22.818Z,2.00
2022-09-11T02:22:25.051Z,1.70
2022-09-11T02:23:26.765Z,2.07
2022-09-11T02:24:28.902Z,1.70
2022-09-11T02:25:30.611Z,1.63
2022-09-11T02:26:39.721Z,1.77
2022-09-11T02:27:41.651Z,2.10
2022-09-11T02:28:43.525Z,2.00
2022-09-11T02:29:45.801Z,2.03
2022-09-11T02:30:47.875Z,1.80
2022-09-11T02:31:52.071Z,1.80
2022-09-11T02:32:55.955Z,1.90
2022-09-11T02:33:58.052Z,1.90
2022-09-11T02:35:00.804Z,1.33
2022-09-11T02:36:17.045Z,1.93
2022-09-11T02:38:05.235Z,1.83
2022-09-11T02:39:40.032Z,1.90
2022-09-11T02:41:13.767Z,1.90
2022-09-11T02:42:47.720Z,1.90
2022-09-11T02:44:06.915Z,2.10
2022-09-11T02:45:30.422Z,2.10
2022-09-11T02:47:26.083Z,1.90
2022-09-11T02:48:39.408Z,2.17
2022-09-11T02:50:07.592Z,2.00
2022-09-11T02:51:36.917Z,2.00
2022-09-11T02:52:52.796Z,2.07
2022-09-11T02:54:29.044Z,2.10
2022-09-11T02:55:52.169Z,2.17
2022-09-11T02:57:17.834Z,1.67
2022-09-11T02:58:21.820Z,1.90
2022-09-11T02:59:40.719Z,2.00
2022-09-11T03:00:42.672Z,1.80
2022-09-11T03:01:55.030Z,1.90
2022-09-11T03:02:57.541Z,1.90
2022-09-11T03:03:59.304Z,1.90
2022-09-11T03:05:01.436Z,1.90
2022-09-11T03:06:03.504Z,2.20
2022-09-11T03:07:05.890Z,2.20
2022-09-11T03:08:08.095Z,2.00
2022-09-11T03:09:10.644Z,2.70
2022-09-11T03:10:12.417Z,2.60
2022-09-11T03:11:17.693Z,2.27
2022-09-11T03:12:19.484Z,2.00
2022-09-11T03:13:21.216Z,2.10
2022-09-11T03:14:22.955Z,2.47
2022-09-11T03:15:24.659Z,2.20
2022-09-11T03:16:26.437Z,2.23
2022-09-11T03:17:28.438Z,2.17
2022-09-11T03:18:30.654Z,2.20
2022-09-11T03:19:32.412Z,1.70
2022-09-11T03:20:34.114Z,2.23
2022-09-11T03:21:36.838Z,2.17
2022-09-11T03:22:39.671Z,2.03
2022-09-11T03:23:41.420Z,2.33
2022-09-11T03:24:43.269Z,2.67
2022-09-11T03:25:44.977Z,2.27
2022-09-11T03:26:46.788Z,1.93
2022-09-11T03:27:48.513Z,2.13
2022-09-11T03:28:50.466Z,2.03
2022-09-11T03:29:52.210Z,2.30
2022-09-11T03:30:53.995Z,2.20
2022-09-11T03:31:57.277Z,2.07
2022-09-11T03:33:00.571Z,2.17
2022-09-11T03:34:02.297Z,2.30
2022-09-11T03:35:04.288Z,2.20
2022-09-11T03:36:06.786Z,2.40
2022-09-11T03:37:08.507Z,2.43
2022-09-11T03:38:11.833Z,2.13
2022-09-11T03:39:13.533Z,2.17
2022-09-11T03:40:15.327Z,2.17
2022-09-11T03:41:17.091Z,2.33
2022-09-11T03:42:18.787Z,2.10
2022-09-11T03:43:21.173Z,2.17
2022-09-11T03:44:23.054Z,2.40
2022-09-11T03:45:24.943Z,2.20
2022-09-11T03:46:27.785Z,2.23
2022-09-11T03:47:29.643Z,2.10
2022-09-11T03:48:32.634Z,2.63
2022-09-11T03:49:34.365Z,2.43
2022-09-11T03:50:36.068Z,2.63
2022-09-11T03:51:37.834Z,2.37
2022-09-11T03:52:39.861Z,2.73
2022-09-11T03:53:43.041Z,2.47
2022-09-11T03:54:44.860Z,2.43
2022-09-11T03:55:49.957Z,2.40
2022-09-11T03:56:51.665Z,2.33
2022-09-11T03:57:53.372Z,2.10
2022-09-11T03:59:02.528Z,2.40
2022-09-11T04:00:05.689Z,2.40
2022-09-11T04:01:16.204Z,2.53
2022-09-11T04:02:18.837Z,2.60
2022-09-11T04:03:20.588Z,2.47
2022-09-11T04:04:22.684Z,2.47
2022-09-11T04:05:25.286Z,2.50
2022-09-11T04:06:27.344Z,2.40
2022-09-11T04:07:31.433Z,2.57
2022-09-11T04:08:33.852Z,2.33
2022-09-11T04:09:35.845Z,2.60
2022-09-11T04:10:38.194Z,2.30
2022-09-11T04:11:40.279Z,2.50
2022-09-11T04:12:41.968Z,2.37
2022-09-11T04:13:44.662Z,2.40
2022-09-11T04:14:46.350Z,2.70
2022-09-11T04:15:48.092Z,2.43
2022-09-11T04:16:49.969Z,2.60
2022-09-11T04:17:51.713Z,2.50
2022-09-11T04:18:54.198Z,2.57
2022-09-11T04:19:55.960Z,2.60
2022-09-11T04:20:58.364Z,2.57
2022-09-11T04:22:00.214Z,2.60
2022-09-11T04:23:02.856Z,2.83
2022-09-11T04:24:05.180Z,2.60
2022-09-11T04:25:07.705Z,2.30
2022-09-11T04:26:16.532Z,2.57
2022-09-11T04:27:18.956Z,2.60
2022-09-11T04:28:20.771Z,2.70
2022-09-11T04:29:22.505Z,2.70
2022-09-11T04:30:24.261Z,2.97
2022-09-11T04:31:30.333Z,2.97
2022-09-11T04:32:32.164Z,2.73
2022-09-11T04:33:36.163Z,2.77
2022-09-11T04:34:37.985Z,2.80
2022-09-11T04:35:40.316Z,2.83
2022-09-11T04:36:42.065Z,2.77
2022-09-11T04:37:43.766Z,2.80
2022-09-11T04:38:47.687Z,2.50
2022-09-11T04:39:49.432Z,2.73
2022-09-11T04:40:51.518Z,2.67
2022-09-11T04:41:54.398Z,2.50
2022-09-11T04:42:56.085Z,2.60
2022-09-11T04:44:04.880Z,2.60
2022-09-11T04:45:07.870Z,2.70
2022-09-11T04:46:17.764Z,2.73
2022-09-11T04:47:19.449Z,2.83
2022-09-11T04:48:21.141Z,2.60
2022-09-11T04:49:25.954Z,2.77
2022-09-11T04:50:29.116Z,2.70
2022-09-11T04:51:36.417Z,2.70
2022-09-11T04:52:39.146Z,2.53
2022-09-11T04:53:41.866Z,2.43
2022-09-11T04:54:43.921Z,2.70
2022-09-11T04:55:45.962Z,2.80
2022-09-11T04:56:48.806Z,2.90
2022-09-11T04:57:50.581Z,2.73
2022-09-11T04:59:13.166Z,2.60
2022-09-11T05:00:16.001Z,2.90
2022-09-11T05:01:17.847Z,2.80
2022-09-11T05:02:19.921Z,2.50
2022-09-11T05:03:21.676Z,2.80
2022-09-11T05:04:26.179Z,2.67
2022-09-11T05:05:28.303Z,2.70
2022-09-11T05:06:30.360Z,2.77
2022-09-11T05:07:32.288Z,2.63
2022-09-11T05:08:34.555Z,2.70
2022-09-11T05:09:36.281Z,2.80
2022-09-11T05:10:38.850Z,2.80
2022-09-11T05:11:40.954Z,3.17
2022-09-11T05:12:42.639Z,2.83
2022-09-11T05:13:45.023Z,2.60
2022-09-11T05:14:46.985Z,2.67
2022-09-11T05:15:48.674Z,2.73
2022-09-11T05:16:52.515Z,3.17
2022-09-11T05:17:54.195Z,3.17
2022-09-11T05:18:57.651Z,2.73
2022-09-11T05:19:59.352Z,2.60
2022-09-11T05:21:03.353Z,2.97
2022-09-11T05:22:05.106Z,3.00
2022-09-11T05:23:07.304Z,2.83
2022-09-11T05:24:09.073Z,2.30
2022-09-11T05:25:11.496Z,3.33
2022-09-11T05:26:19.296Z,2.90
2022-09-11T05:27:21.031Z,3.17
2022-09-11T05:28:22.769Z,2.97
2022-09-11T05:29:32.217Z,3.10
2022-09-11T05:30:34.520Z,2.70
2022-09-11T05:31:37.215Z,2.93
2022-09-11T05:32:39.082Z,3.40
2022-09-11T05:33:41.439Z,3.10
2022-09-11T05:34:43.577Z,3.40
2022-09-11T05:35:46.567Z,3.10
2022-09-11T05:36:48.617Z,3.10
2022-09-11T05:37:50.430Z,3.10
2022-09-11T05:38:52.874Z,3.03
2022-09-11T05:39:54.857Z,3.60
2022-09-11T05:40:56.660Z,3.10
2022-09-11T05:41:58.471Z,3.57
2022-09-11T05:43:00.165Z,3.07
2022-09-11T05:44:02.263Z,3.10
2022-09-11T05:45:04.825Z,3.17
2022-09-11T05:46:11.151Z,3.00
2022-09-11T05:47:14.199Z,2.90
2022-09-11T05:48:16.396Z,3.17
2022-09-11T05:49:19.311Z,3.10
2022-09-11T05:50:21.649Z,3.67
2022-09-11T05:51:23.770Z,3.37
2022-09-11T05:52:25.620Z,3.27
2022-09-11T05:53:32.026Z,3.20
2022-09-11T05:54:33.872Z,2.90
2022-09-11T05:55:35.608Z,3.30
2022-09-11T05:56:37.311Z,3.27
2022-09-11T05:57:39.016Z,3.33
2022-09-11T05:58:40.806Z,3.07
2022-09-11T05:59:42.573Z,3.87
2022-09-11T06:00:48.495Z,3.43
2022-09-11T06:01:50.384Z,3.03
2022-09-11T06:02:54.613Z,3.37
2022-09-11T06:03:57.899Z,3.23
2022-09-11T06:04:59.737Z,3.60
2022-09-11T06:06:03.558Z,3.27
2022-09-11T06:07:05.353Z,3.30
2022-09-11T06:08:11.768Z,3.63
2022-09-11T06:09:13.962Z,3.10
2022-09-11T06:10:15.759Z,3.33
2022-09-11T06:11:20.155Z,3.30
2022-09-11T06:12:21.895Z,3.30
2022-09-11T06:13:26.407Z,3.20
2022-09-11T06:14:28.133Z,3.27
2022-09-11T06:15:46.256Z,3.53
2022-09-11T06:16:48.853Z,3.30
2022-09-11T06:17:50.665Z,3.10
2022-09-11T06:18:54.285Z,3.13
2022-09-11T06:19:56.067Z,3.50
2022-09-11T06:21:01.460Z,3.40
2022-09-11T06:22:03.191Z,3.60
2022-09-11T06:23:09.069Z,4.13
2022-09-11T06:24:11.048Z,3.37
2022-09-11T06:25:12.885Z,3.83
2022-09-11T06:26:18.255Z,3.47
2022-09-11T06:27:20.075Z,3.50
2022-09-11T06:28:23.400Z,3.40
2022-09-11T06:29:25.159Z,3.90
2022-09-11T06:30:27.084Z,3.50
2022-09-11T06:31:29.854Z,4.10
2022-09-11T06:32:31.543Z,4.07
2022-09-11T06:33:36.124Z,4.10
2022-09-11T06:34:37.893Z,3.80
2022-09-11T06:35:39.584Z,3.70
2022-09-11T06:36:41.317Z,4.33
2022-09-11T06:37:43.050Z,3.70
2022-09-11T06:38:46.010Z,3.80
2022-09-11T06:39:47.820Z,3.67
2022-09-11T06:40:50.332Z,3.73
2022-09-11T06:41:53.844Z,3.67
2022-09-11T06:42:55.542Z,3.70
2022-09-11T06:43:57.257Z,3.90
2022-09-11T06:44:58.991Z,4.30
2022-09-11T06:46:12.020Z,3.80
2022-09-11T06:47:13.817Z,3.60
2022-09-11T06:48:17.084Z,3.90
2022-09-11T06:49:19.539Z,3.53
2022-09-11T06:50:23.393Z,3.90
2022-09-11T06:51:25.353Z,3.73
2022-09-11T06:52:28.110Z,3.53
2022-09-11T06:53:30.325Z,3.50
2022-09-11T06:54:32.091Z,3.60
2022-09-11T06:55:34.595Z,4.13
2022-09-11T06:56:36.337Z,4.03
2022-09-11T06:57:41.782Z,4.03
2022-09-11T06:58:45.249Z,3.43
2022-09-11T06:59:47.147Z,3.60
2022-09-11T07:00:49.147Z,3.63
2022-09-11T07:01:51.870Z,3.93
2022-09-11T07:02:54.331Z,3.37
2022-09-11T07:03:56.814Z,3.33
2022-09-11T07:04:58.597Z,4.20
2022-09-11T07:06:01.012Z,3.50
2022-09-11T07:07:02.768Z,3.60
2022-09-11T07:08:05.393Z,3.70
2022-09-11T07:09:07.147Z,3.90
2022-09-11T07:10:10.349Z,4.10
2022-09-11T07:11:12.738Z,3.60
2022-09-11T07:12:14.805Z,4.20
2022-09-11T07:13:16.614Z,3.90
2022-09-11T07:14:21.226Z,3.90
2022-09-11T07:15:23.003Z,3.70
2022-09-11T07:16:25.732Z,3.80
2022-09-11T07:17:27.484Z,3.57
2022-09-11T07:18:44.561Z,3.87
2022-09-11T07:19:46.281Z,4.13
2022-09-11T07:20:48.002Z,4.47
2022-09-11T07:21:49.728Z,3.53
2022-09-11T07:22:51.460Z,4.17
2022-09-11T07:23:57.539Z,3.73
2022-09-11T07:25:03.627Z,3.67
2022-09-11T07:26:12.197Z,4.40
2022-09-11T07:27:14.212Z,3.77
2022-09-11T07:28:15.964Z,3.60
2022-09-11T07:29:18.340Z,3.83
2022-09-11T07:30:20.430Z,4.07
2022-09-11T07:31:29.603Z,3.63
2022-09-11T07:32:31.334Z,3.50
2022-09-11T07:33:33.319Z,3.77
2022-09-11T07:34:35.091Z,3.87
2022-09-11T07:35:38.009Z,3.60
2022-09-11T07:36:39.771Z,3.47
2022-09-11T07:37:41.495Z,3.93
2022-09-11T07:38:49.540Z,4.57
2022-09-11T07:39:51.272Z,4.30
2022-09-11T07:40:56.930Z,4.13
2022-09-11T07:41:58.708Z,3.77
2022-09-11T07:43:00.446Z,4.73
2022-09-11T07:44:03.631Z,4.60
2022-09-11T07:45:06.252Z,4.77
2022-09-11T07:46:10.197Z,4.57
2022-09-11T07:47:12.021Z,4.50
2022-09-11T07:48:13.713Z,4.90
2022-09-11T07:49:15.871Z,4.43
2022-09-11T07:50:18.001Z,3.73
2022-09-11T07:51:20.114Z,4.23
2022-09-11T07:52:21.813Z,4.33
2022-09-11T07:53:25.590Z,4.03
2022-09-11T07:54:28.957Z,3.73
2022-09-11T07:55:30.904Z,4.83
2022-09-11T07:56:34.749Z,4.73
2022-09-11T07:57:36.465Z,5.13
2022-09-11T07:58:40.997Z,4.90
2022-09-11T07:59:42.725Z,4.33
2022-09-11T08:00:45.133Z,5.20
2022-09-11T08:01:46.851Z,5.00
2022-09-11T08:02:49.362Z,4.70
2022-09-11T08:04:01.037Z,4.40
2022-09-11T08:05:02.784Z,4.50
2022-09-11T08:06:09.478Z,3.97
2022-09-11T08:07:11.698Z,4.20
2022-09-11T08:08:13.430Z,4.30
2022-09-11T08:09:15.542Z,4.00
2022-09-11T08:10:27.263Z,4.40
2022-09-11T08:11:31.725Z,4.40
2022-09-11T08:12:34.609Z,4.50
2022-09-11T08:13:36.818Z,4.13
2022-09-11T08:14:38.653Z,4.77
2022-09-11T08:15:50.730Z,4.10
2022-09-11T08:16:53.497Z,3.97
2022-09-11T08:17:55.265Z,4.63
2022-09-11T08:18:57.185Z,4.63
2022-09-11T08:19:58.922Z,4.23
2022-09-11T08:21:12.709Z,4.50
2022-09-11T08:22:14.862Z,4.20
2022-09-11T08:23:16.899Z,3.93
2022-09-11T08:24:24.321Z,4.77
2022-09-11T08:25:27.550Z,4.33
2022-09-11T08:26:30.837Z,4.23
2022-09-11T08:27:32.564Z,4.00
2022-09-11T08:28:36.991Z,4.23
2022-09-11T08:29:38.726Z,4.00
2022-09-11T08:30:40.452Z,4.47
2022-09-11T08:31:42.256Z,4.10
2022-09-11T08:32:44.000Z,3.83
2022-09-11T08:33:46.144Z,4.70
2022-09-11T08:34:48.054Z,3.77
2022-09-11T08:35:49.797Z,4.10
2022-09-11T08:36:51.945Z,3.60
2022-09-11T08:37:55.173Z,3.70
2022-09-11T08:39:02.734Z,3.83
2022-09-11T08:40:05.356Z,3.70
2022-09-11T08:41:30.551Z,4.00
2022-09-11T08:42:32.294Z,3.87
2022-09-11T08:43:39.332Z,3.80
2022-09-11T08:44:53.286Z,3.77
2022-09-11T08:46:00.909Z,3.80
2022-09-11T08:47:24.862Z,3.57
2022-09-11T08:48:40.211Z,3.73
2022-09-11T08:49:47.069Z,3.87
2022-09-11T08:50:49.479Z,3.97
2022-09-11T08:52:02.137Z,4.10
2022-09-11T08:53:04.446Z,4.33
2022-09-11T08:54:07.533Z,3.37
2022-09-11T08:55:14.756Z,3.60
2022-09-11T08:56:22.623Z,4.13
2022-09-11T08:57:43.321Z,3.77
2022-09-11T08:59:02.436Z,3.70
2022-09-11T09:00:24.949Z,4.00
2022-09-11T09:01:53.078Z,3.20
2022-09-11T09:03:47.535Z,3.70
2022-09-11T09:05:31.469Z,3.57
2022-09-11T09:06:55.244Z,3.60
2022-09-11T09:08:18.134Z,3.87
2022-09-11T09:10:03.479Z,3.20
2022-09-11T09:11:33.745Z,3.67
2022-09-11T09:13:29.438Z,3.50
2022-09-11T09:15:02.123Z,4.00
2022-09-11T09:16:43.949Z,3.97
2022-09-11T09:18:00.586Z,3.70
2022-09-11T09:19:10.027Z,3.80
2022-09-11T09:20:22.553Z,3.87
2022-09-11T09:21:36.003Z,3.70
2022-09-11T09:23:25.751Z,3.90
2022-09-11T09:24:36.147Z,3.40
2022-09-11T09:25:42.853Z,3.80
2022-09-11T09:26:51.153Z,3.43
2022-09-11T09:28:17.379Z,3.77
2022-09-11T09:29:30.431Z,3.70
2022-09-11T09:30:50.970Z,3.80
2022-09-11T09:32:01.930Z,3.57
2022-09-11T09:33:34.596Z,3.87
2022-09-11T09:34:40.911Z,3.90
2022-09-11T09:35:45.146Z,3.60
2022-09-11T09:37:16.035Z,3.83
2022-09-11T09:38:26.407Z,3.67
2022-09-11T09:39:29.335Z,3.60
2022-09-11T09:40:35.600Z,3.50
2022-09-11T09:42:16.129Z,3.40
2022-09-11T09:44:01.220Z,3.67
2022-09-11T09:45:37.860Z,3.40
2022-09-11T09:46:51.187Z,3.53
2022-09-11T09:47:53.575Z,3.70
2022-09-11T09:48:56.056Z,3.70
2022-09-11T09:49:58.738Z,3.57
2022-09-11T09:51:03.986Z,3.93
2022-09-11T09:52:32.181Z,4.27
2022-09-11T09:53:49.624Z,4.00
2022-09-11T09:55:05.121Z,4.13
2022-09-11T09:56:07.712Z,4.00
2022-09-11T09:57:11.755Z,3.93
2022-09-11T09:58:15.070Z,3.80
2022-09-11T09:59:26.543Z,3.90
2022-09-11T10:00:30.933Z,3.53
2022-09-11T10:01:45.901Z,3.87
2022-09-11T10:02:57.182Z,4.20
2022-09-11T10:04:31.555Z,3.53
2022-09-11T10:05:54.573Z,3.63
2022-09-11T10:07:14.130Z,3.77
2022-09-11T10:08:37.225Z,3.80
2022-09-11T10:09:49.805Z,4.13
2022-09-11T10:11:04.717Z,3.90
2022-09-11T10:12:16.434Z,3.73
2022-09-11T10:13:24.989Z,4.20
2022-09-11T10:14:49.723Z,3.50
2022-09-11T10:15:50.321Z,3.83
2022-09-11T10:16:53.769Z,3.60
2022-09-11T10:18:37.582Z,3.77
2022-09-11T10:19:43.369Z,3.60
2022-09-11T10:20:45.658Z,4.47
2022-09-11T10:21:47.369Z,4.33
2022-09-11T10:22:50.990Z,4.30
2022-09-11T10:24:02.723Z,4.40
2022-09-11T10:25:09.256Z,4.07
2022-09-11T10:26:45.967Z,4.00
2022-09-11T10:28:17.340Z,3.97
2022-09-11T10:29:26.371Z,3.90
2022-09-11T10:30:41.569Z,4.53
2022-09-11T10:31:51.358Z,3.70
2022-09-11T10:32:53.343Z,4.13
2022-09-11T10:33:59.611Z,3.80
2022-09-11T10:35:08.667Z,3.40
2022-09-11T10:36:11.915Z,4.40
2022-09-11T10:37:16.229Z,3.77
2022-09-11T10:38:20.068Z,3.83
2022-09-11T10:39:25.938Z,4.43
2022-09-11T10:40:27.672Z,4.00
2022-09-11T10:41:34.708Z,3.90
2022-09-11T10:42:37.866Z,3.70
2022-09-11T10:44:03.137Z,3.90
2022-09-11T10:45:16.866Z,3.63
2022-09-11T10:46:29.648Z,3.72
2022-09-11T10:47:33.120Z,3.45
2022-09-11T10:48:36.663Z,3.75
2022-09-11T10:49:38.458Z,3.63
2022-09-11T10:50:40.229Z,3.45
2022-09-11T10:51:57.317Z,3.65
2022-09-11T10:53:20.100Z,2.88
2022-09-11T10:55:00.610Z,3.50
2022-09-11T10:56:05.915Z,3.80
2022-09-11T10:57:42.134Z,3.35
2022-09-11T10:58:54.924Z,3.47
2022-09-11T11:00:23.477Z,3.50
2022-09-11T11:01:26.127Z,3.47
2022-09-11T11:02:36.118Z,3.95
2022-09-11T11:03:38.173Z,3.28
2022-09-11T11:04:40.005Z,3.47
2022-09-11T11:06:34.901Z,3.57
2022-09-11T11:08:02.111Z,3.20
2022-09-11T11:09:39.101Z,3.38
2022-09-11T11:11:05.240Z,3.42
2022-09-11T11:12:33.025Z,4.05
2022-09-11T11:14:14.433Z,3.58
2022-09-11T11:16:04.054Z,3.25
2022-09-11T11:17:43.320Z,3.08
2022-09-11T11:19:11.938Z,3.47
2022-09-11T11:20:47.461Z,3.33
2022-09-11T11:22:23.983Z,3.35
2022-09-11T11:23:56.677Z,3.33
2022-09-11T11:25:27.432Z,3.05
2022-09-11T11:26:59.552Z,3.25
2022-09-11T11:28:29.295Z,3.03
2022-09-11T11:30:00.482Z,3.20
2022-09-11T11:31:34.176Z,3.22
2022-09-11T11:33:09.311Z,3.38
2022-09-11T11:34:46.877Z,3.20
2022-09-11T11:36:04.078Z,3.50
2022-09-11T11:37:23.087Z,3.33
2022-09-11T11:38:40.984Z,3.13
2022-09-11T11:40:18.627Z,3.10
2022-09-11T11:41:32.173Z,3.38
2022-09-11T11:42:53.990Z,3.55
2022-09-11T11:44:03.303Z,3.00
2022-09-11T11:45:32.257Z,3.08
2022-09-11T11:46:45.937Z,3.50
2022-09-11T11:47:51.327Z,3.28
2022-09-11T11:49:04.634Z,3.28
2022-09-11T11:50:27.422Z,3.10
2022-09-11T11:51:47.427Z,3.60
2022-09-11T11:53:31.730Z,3.38
2022-09-11T11:54:52.300Z,3.38
2022-09-11T11:56:15.963Z,3.13
2022-09-11T11:57:26.072Z,3.00
2022-09-11T11:58:47.156Z,3.30
2022-09-11T12:00:09.684Z,3.22
2022-09-11T12:01:38.398Z,3.15
2022-09-11T12:03:01.950Z,3.38
2022-09-11T12:04:59.182Z,3.22
2022-09-11T12:06:01.019Z,3.03
2022-09-11T12:07:04.691Z,3.80
2022-09-11T12:08:16.588Z,3.30
2022-09-11T12:09:19.082Z,3.58
2022-09-11T12:10:36.164Z,3.60
2022-09-11T12:11:39.149Z,3.60
2022-09-11T12:12:53.492Z,3.58
2022-09-11T12:13:56.028Z,3.20
2022-09-11T12:15:07.842Z,3.75
2022-09-11T12:16:29.062Z,3.70
2022-09-11T12:17:34.769Z,4.17
2022-09-11T12:18:38.369Z,4.10
2022-09-11T12:20:12.176Z,3.97
2022-09-11T12:21:22.763Z,3.90
2022-09-11T12:22:38.247Z,4.10
2022-09-11T12:23:47.143Z,4.23
2022-09-11T12:24:52.434Z,3.43
2022-09-11T12:26:10.523Z,4.20
2022-09-11T12:27:33.258Z,3.88
2022-09-11T12:28:35.717Z,3.77
2022-09-11T12:29:42.442Z,3.72
2022-09-11T12:31:11.285Z,4.20
2022-09-11T12:32:16.386Z,4.00
2022-09-11T12:33:43.403Z,3.93
2022-09-11T12:34:45.267Z,3.23
2022-09-11T12:35:53.423Z,3.90
2022-09-11T12:37:12.091Z,4.17
2022-09-11T12:38:37.958Z,4.53
2022-09-11T12:39:53.079Z,3.47
2022-09-11T12:41:07.425Z,3.40
2022-09-11T12:42:25.232Z,3.83
2022-09-11T12:43:37.810Z,3.33
2022-09-11T12:44:48.632Z,3.50
2022-09-11T12:45:50.448Z,3.47
2022-09-11T12:46:54.921Z,3.13
2022-09-11T12:48:25.894Z,3.27
2022-09-11T12:49:28.087Z,3.13
2022-09-11T12:50:30.014Z,3.50
2022-09-11T12:51:38.044Z,3.60
2022-09-11T12:52:45.645Z,3.40
2022-09-11T12:53:52.020Z,3.33
2022-09-11T12:54:54.466Z,3.00
2022-09-11T12:56:07.386Z,3.67
2022-09-11T12:57:27.748Z,3.23
2022-09-11T12:58:41.829Z,3.13
2022-09-11T12:59:53.187Z,3.25
2022-09-11T13:01:30.752Z,3.40
2022-09-11T13:02:44.459Z,2.80
2022-09-11T13:04:27.349Z,3.08
2022-09-11T13:05:38.008Z,3.40
2022-09-11T13:06:54.655Z,3.10
2022-09-11T13:08:03.624Z,3.10
2022-09-11T13:09:07.458Z,3.25
2022-09-11T13:10:33.349Z,2.80
2022-09-11T13:11:45.435Z,3.33
2022-09-11T13:12:55.728Z,3.28
2022-09-11T13:13:57.496Z,3.13
2022-09-11T13:15:00.096Z,3.30
2022-09-11T13:16:25.907Z,3.00
2022-09-11T13:17:46.645Z,2.80
2022-09-11T13:18:48.486Z,2.90
2022-09-11T13:19:50.839Z,2.65
2022-09-11T13:21:00.546Z,3.00
2022-09-11T13:22:19.702Z,3.13
2022-09-11T13:23:21.562Z,3.20
2022-09-11T13:24:28.609Z,3.00
2022-09-11T13:25:32.630Z,3.30
2022-09-11T13:26:35.057Z,3.30
2022-09-11T13:27:39.427Z,3.08
2022-09-11T13:28:49.262Z,2.97
2022-09-11T13:29:54.872Z,3.20
2022-09-11T13:31:04.980Z,3.10
2022-09-11T13:32:13.831Z,3.50
2022-09-11T13:33:23.931Z,2.97
2022-09-11T13:34:29.514Z,3.20
2022-09-11T13:35:32.421Z,2.97
2022-09-11T13:36:36.408Z,3.20
2022-09-11T13:37:57.040Z,2.90
2022-09-11T13:39:02.804Z,3.00
2022-09-11T13:40:14.530Z,2.90
2022-09-11T13:41:28.842Z,3.42
2022-09-11T13:42:31.844Z,3.20
2022-09-11T13:43:49.785Z,2.72
2022-09-11T13:44:59.402Z,3.00
2022-09-11T13:46:16.229Z,3.10
2022-09-11T13:47:31.330Z,3.00
2022-09-11T13:48:33.051Z,3.03
2022-09-11T13:49:38.932Z,2.90
2022-09-11T13:50:40.899Z,2.85
2022-09-11T13:51:47.859Z,3.03
2022-09-11T13:52:53.275Z,2.80
2022-09-11T13:54:14.723Z,3.10
2022-09-11T13:55:23.484Z,3.42
2022-09-11T13:56:56.168Z,3.08
2022-09-11T13:58:03.677Z,3.00
2022-09-11T13:59:38.233Z,3.17
2022-09-11T14:00:45.210Z,3.22
2022-09-11T14:02:00.758Z,3.00
2022-09-11T14:03:02.738Z,2.90
2022-09-11T14:04:05.252Z,2.97
2022-09-11T14:05:09.956Z,2.92
2022-09-11T14:06:18.902Z,2.85
2022-09-11T14:07:26.623Z,3.00
2022-09-11T14:08:34.203Z,2.90
2022-09-11T14:09:36.061Z,3.17
2022-09-11T14:10:43.549Z,2.88
2022-09-11T14:11:45.583Z,2.78
2022-09-11T14:13:16.784Z,2.92
2022-09-11T14:14:28.674Z,2.83
2022-09-11T14:15:48.913Z,2.83
2022-09-11T14:16:57.951Z,2.90
2022-09-11T14:18:04.868Z,2.83
2022-09-11T14:19:15.762Z,2.92
2022-09-11T14:20:24.415Z,3.03
2022-09-11T14:21:36.516Z,3.30
2022-09-11T14:22:38.272Z,3.75
2022-09-11T14:24:27.066Z,3.47
2022-09-11T14:25:28.949Z,3.17
2022-09-11T14:26:30.589Z,3.20
2022-09-11T14:27:32.730Z,2.90
2022-09-11T14:28:48.635Z,3.10
2022-09-11T14:29:55.441Z,3.33
2022-09-11T14:31:10.888Z,3.40
2022-09-11T14:32:39.990Z,3.23
2022-09-11T14:33:41.922Z,3.47
2022-09-11T14:34:43.772Z,3.40
2022-09-11T14:35:48.251Z,3.28
2022-09-11T14:37:07.850Z,3.43
2022-09-11T14:38:14.039Z,3.60
2022-09-11T14:39:32.990Z,2.90
2022-09-11T14:40:36.506Z,3.50
2022-09-11T14:41:38.274Z,3.23
2022-09-11T14:42:42.785Z,3.40
2022-09-11T14:43:48.881Z,3.30
2022-09-11T14:44:53.303Z,3.37
2022-09-11T14:45:55.255Z,3.53
2022-09-11T14:46:57.587Z,3.20
2022-09-11T14:48:00.062Z,3.13
2022-09-11T14:49:02.600Z,3.60
2022-09-11T14:50:06.774Z,3.42
2022-09-11T14:51:13.517Z,3.43
2022-09-11T14:52:27.842Z,3.20
2022-09-11T14:53:31.825Z,3.17
2022-09-11T14:54:33.602Z,3.37
2022-09-11T14:55:35.942Z,3.60
2022-09-11T14:56:37.638Z,3.53
2022-09-11T14:57:39.361Z,3.90
2022-09-11T14:58:41.163Z,3.20
2022-09-11T14:59:43.142Z,3.40
2022-09-11T15:00:45.070Z,3.03
2022-09-11T15:01:48.032Z,3.40
2022-09-11T15:02:49.944Z,3.50
2022-09-11T15:03:52.225Z,3.33
2022-09-11T15:04:57.438Z,3.40
2022-09-11T15:05:59.513Z,3.60
2022-09-11T15:07:01.221Z,3.40
2022-09-11T15:08:03.455Z,3.50
2022-09-11T15:09:05.199Z,3.23
2022-09-11T15:10:07.418Z,3.27
2022-09-11T15:11:09.166Z,3.50
2022-09-11T15:12:13.719Z,3.40
2022-09-11T15:13:15.465Z,3.17
2022-09-11T15:14:32.564Z,3.13
2022-09-11T15:15:40.529Z,3.07
2022-09-11T15:16:42.500Z,3.63
2022-09-11T15:17:44.292Z,3.63
2022-09-11T15:18:45.994Z,3.67
2022-09-11T15:19:49.802Z,3.40
2022-09-11T15:20:51.513Z,3.00
2022-09-11T15:21:53.540Z,3.30